sensor_id;sensor_type;location;lat;lon;timestamp;P1;durP1;ratioP1;P2;durP2;ratioP2
78224;SDS011;67498;53.650;10.090;2023-06-26T00:02:06;7.40;;;3.97;;
78224;SDS011;67498;53.650;10.090;2023-06-26T00:04:32;7.50;;;3.43;;
78224;SDS011;67498;53.650;10.090;2023-06-26T00:06:57;8.27;;;3.23;;
78224;SDS011;67498;53.650;10.090;2023-06-26T00:09:22;6.87;;;3.60;;
78224;SDS011;67498;53.650;10.090;2023-06-26T00:11:47;6.57;;;3.43;;
78224;SDS011;67498;53.650;10.090;2023-06-26T00:14:13;8.77;;;4.53;;
78224;SDS011;67498;53.650;10.090;2023-06-26T00:16:38;8.77;;;4.13;;
78224;SDS011;67498;53.650;10.090;2023-06-26T00:19:03;7.70;;;3.30;;
78224;SDS011;67498;53.650;10.090;2023-06-26T00:21:29;8.27;;;4.17;;
78224;SDS011;67498;53.650;10.090;2023-06-26T00:23:54;7.87;;;3.97;;
78224;SDS011;67498;53.650;10.090;2023-06-26T00:26:19;9.77;;;4.60;;
78224;SDS011;67498;53.650;10.090;2023-06-26T00:28:44;7.60;;;3.87;;
78224;SDS011;67498;53.650;10.090;2023-06-26T00:31:10;6.70;;;3.53;;
78224;SDS011;67498;53.650;10.090;2023-06-26T00:33:35;7.57;;;3.97;;
78224;SDS011;67498;53.650;10.090;2023-06-26T00:36:00;8.07;;;3.63;;
78224;SDS011;67498;53.650;10.090;2023-06-26T00:38:25;7.93;;;3.90;;
78224;SDS011;67498;53.650;10.090;2023-06-26T00:40:51;9.93;;;4.33;;
78224;SDS011;67498;53.650;10.090;2023-06-26T00:43:16;9.83;;;4.00;;
78224;SDS011;67498;53.650;10.090;2023-06-26T00:45:41;7.17;;;4.07;;
78224;SDS011;67498;53.650;10.090;2023-06-26T00:48:06;7.43;;;4.07;;
78224;SDS011;67498;53.650;10.090;2023-06-26T00:50:33;9.07;;;4.53;;
78224;SDS011;67498;53.650;10.090;2023-06-26T00:52:58;9.67;;;4.43;;
78224;SDS011;67498;53.650;10.090;2023-06-26T00:55:26;9.02;;;4.50;;
78224;SDS011;67498;53.650;10.090;2023-06-26T00:57:52;8.93;;;4.35;;
78224;SDS011;67498;53.650;10.090;2023-06-26T01:00:19;7.60;;;4.13;;
78224;SDS011;67498;53.650;10.090;2023-06-26T01:02:45;8.73;;;4.10;;
78224;SDS011;67498;53.650;10.090;2023-06-26T01:05:12;8.35;;;4.60;;
78224;SDS011;67498;53.650;10.090;2023-06-26T01:07:43;10.05;;;3.95;;
78224;SDS011;67498;53.650;10.090;2023-06-26T01:10:09;8.90;;;4.03;;
78224;SDS011;67498;53.650;10.090;2023-06-26T01:12:34;7.90;;;4.33;;
78224;SDS011;67498;53.650;10.090;2023-06-26T01:15:01;12.95;;;4.13;;
78224;SDS011;67498;53.650;10.090;2023-06-26T01:17:27;11.27;;;4.23;;
78224;SDS011;67498;53.650;10.090;2023-06-26T01:19:56;8.07;;;3.80;;
78224;SDS011;67498;53.650;10.090;2023-06-26T01:22:31;8.55;;;4.32;;
78224;SDS011;67498;53.650;10.090;2023-06-26T01:25:21;9.32;;;4.07;;
78224;SDS011;67498;53.650;10.090;2023-06-26T01:28:03;8.05;;;4.40;;
78224;SDS011;67498;53.650;10.090;2023-06-26T01:30:30;8.80;;;4.40;;
78224;SDS011;67498;53.650;10.090;2023-06-26T01:32:57;7.90;;;4.20;;
78224;SDS011;67498;53.650;10.090;2023-06-26T01:35:24;10.02;;;4.47;;
78224;SDS011;67498;53.650;10.090;2023-06-26T01:37:50;7.80;;;4.00;;
78224;SDS011;67498;53.650;10.090;2023-06-26T01:40:15;7.87;;;4.20;;
78224;SDS011;67498;53.650;10.090;2023-06-26T01:42:40;8.40;;;4.37;;
78224;SDS011;67498;53.650;10.090;2023-06-26T01:45:07;8.10;;;4.10;;
78224;SDS011;67498;53.650;10.090;2023-06-26T01:47:40;7.68;;;3.75;;
78224;SDS011;67498;53.650;10.090;2023-06-26T01:50:12;8.55;;;4.50;;
78224;SDS011;67498;53.650;10.090;2023-06-26T01:52:49;8.70;;;4.20;;
78224;SDS011;67498;53.650;10.090;2023-06-26T01:55:44;10.77;;;4.75;;
78224;SDS011;67498;53.650;10.090;2023-06-26T01:58:11;8.07;;;4.28;;
78224;SDS011;67498;53.650;10.090;2023-06-26T02:00:39;9.43;;;4.72;;
78224;SDS011;67498;53.650;10.090;2023-06-26T02:03:05;8.40;;;4.17;;
78224;SDS011;67498;53.650;10.090;2023-06-26T02:05:31;9.32;;;4.32;;
78224;SDS011;67498;53.650;10.090;2023-06-26T02:07:56;9.00;;;4.15;;
78224;SDS011;67498;53.650;10.090;2023-06-26T02:10:22;9.33;;;4.30;;
78224;SDS011;67498;53.650;10.090;2023-06-26T02:12:47;7.23;;;3.97;;
78224;SDS011;67498;53.650;10.090;2023-06-26T02:15:12;8.47;;;4.50;;
78224;SDS011;67498;53.650;10.090;2023-06-26T02:17:37;9.03;;;4.63;;
78224;SDS011;67498;53.650;10.090;2023-06-26T02:20:03;7.93;;;4.23;;
78224;SDS011;67498;53.650;10.090;2023-06-26T02:22:29;8.75;;;4.80;;
78224;SDS011;67498;53.650;10.090;2023-06-26T02:24:54;8.43;;;4.53;;
78224;SDS011;67498;53.650;10.090;2023-06-26T02:27:19;8.37;;;4.40;;
78224;SDS011;67498;53.650;10.090;2023-06-26T02:29:45;7.17;;;3.90;;
78224;SDS011;67498;53.650;10.090;2023-06-26T02:32:10;8.53;;;4.20;;
78224;SDS011;67498;53.650;10.090;2023-06-26T02:34:35;7.50;;;3.70;;
78224;SDS011;67498;53.650;10.090;2023-06-26T02:37:01;11.35;;;4.00;;
78224;SDS011;67498;53.650;10.090;2023-06-26T02:39:27;9.30;;;4.17;;
78224;SDS011;67498;53.650;10.090;2023-06-26T02:41:52;6.90;;;3.88;;
78224;SDS011;67498;53.650;10.090;2023-06-26T02:44:18;8.17;;;3.90;;
78224;SDS011;67498;53.650;10.090;2023-06-26T02:46:43;9.05;;;3.58;;
78224;SDS011;67498;53.650;10.090;2023-06-26T02:49:09;9.40;;;3.37;;
78224;SDS011;67498;53.650;10.090;2023-06-26T02:51:34;10.10;;;4.03;;
78224;SDS011;67498;53.650;10.090;2023-06-26T02:53:59;7.90;;;3.80;;
78224;SDS011;67498;53.650;10.090;2023-06-26T02:56:25;7.30;;;3.63;;
78224;SDS011;67498;53.650;10.090;2023-06-26T02:58:54;9.00;;;4.03;;
78224;SDS011;67498;53.650;10.090;2023-06-26T03:01:22;7.90;;;4.18;;
78224;SDS011;67498;53.650;10.090;2023-06-26T03:03:47;7.47;;;3.70;;
78224;SDS011;67498;53.650;10.090;2023-06-26T03:06:13;7.57;;;3.50;;
78224;SDS011;67498;53.650;10.090;2023-06-26T03:08:39;7.15;;;3.65;;
78224;SDS011;67498;53.650;10.090;2023-06-26T03:11:05;7.93;;;3.97;;
78224;SDS011;67498;53.650;10.090;2023-06-26T03:13:31;7.07;;;3.83;;
78224;SDS011;67498;53.650;10.090;2023-06-26T03:15:57;8.03;;;4.30;;
78224;SDS011;67498;53.650;10.090;2023-06-26T03:18:23;9.63;;;3.95;;
78224;SDS011;67498;53.650;10.090;2023-06-26T03:20:48;13.93;;;3.93;;
78224;SDS011;67498;53.650;10.090;2023-06-26T03:23:13;9.10;;;4.07;;
78224;SDS011;67498;53.650;10.090;2023-06-26T03:25:39;10.00;;;3.77;;
78224;SDS011;67498;53.650;10.090;2023-06-26T03:28:04;9.50;;;4.10;;
78224;SDS011;67498;53.650;10.090;2023-06-26T03:30:29;9.40;;;4.60;;
78224;SDS011;67498;53.650;10.090;2023-06-26T03:32:54;8.57;;;3.70;;
78224;SDS011;67498;53.650;10.090;2023-06-26T03:35:20;7.40;;;3.40;;
78224;SDS011;67498;53.650;10.090;2023-06-26T03:37:45;7.27;;;3.50;;
78224;SDS011;67498;53.650;10.090;2023-06-26T03:40:10;6.70;;;3.20;;
78224;SDS011;67498;53.650;10.090;2023-06-26T03:42:36;8.25;;;3.75;;
78224;SDS011;67498;53.650;10.090;2023-06-26T03:45:01;7.97;;;3.10;;
78224;SDS011;67498;53.650;10.090;2023-06-26T03:47:26;6.40;;;2.87;;
78224;SDS011;67498;53.650;10.090;2023-06-26T03:49:52;9.13;;;3.60;;
78224;SDS011;67498;53.650;10.090;2023-06-26T03:52:17;7.47;;;3.50;;
78224;SDS011;67498;53.650;10.090;2023-06-26T03:54:42;7.50;;;3.47;;
78224;SDS011;67498;53.650;10.090;2023-06-26T03:57:08;7.93;;;3.53;;
78224;SDS011;67498;53.650;10.090;2023-06-26T03:59:33;7.53;;;3.00;;
78224;SDS011;67498;53.650;10.090;2023-06-26T04:01:59;11.47;;;3.37;;
78224;SDS011;67498;53.650;10.090;2023-06-26T04:04:24;8.37;;;3.73;;
78224;SDS011;67498;53.650;10.090;2023-06-26T04:06:49;7.00;;;2.87;;
78224;SDS011;67498;53.650;10.090;2023-06-26T04:09:15;8.20;;;3.38;;
78224;SDS011;67498;53.650;10.090;2023-06-26T04:11:41;6.37;;;3.20;;
78224;SDS011;67498;53.650;10.090;2023-06-26T04:14:06;11.80;;;3.53;;
78224;SDS011;67498;53.650;10.090;2023-06-26T04:16:31;8.70;;;3.30;;
78224;SDS011;67498;53.650;10.090;2023-06-26T04:18:56;7.45;;;3.45;;
78224;SDS011;67498;53.650;10.090;2023-06-26T04:21:23;6.77;;;3.17;;
78224;SDS011;67498;53.650;10.090;2023-06-26T04:23:51;10.17;;;3.77;;
78224;SDS011;67498;53.650;10.090;2023-06-26T04:26:17;7.40;;;3.43;;
78224;SDS011;67498;53.650;10.090;2023-06-26T04:28:42;9.07;;;3.80;;
78224;SDS011;67498;53.650;10.090;2023-06-26T04:31:08;8.23;;;3.10;;
78224;SDS011;67498;53.650;10.090;2023-06-26T04:33:34;6.20;;;3.10;;
78224;SDS011;67498;53.650;10.090;2023-06-26T04:36:01;6.80;;;2.97;;
78224;SDS011;67498;53.650;10.090;2023-06-26T04:38:28;5.17;;;2.73;;
78224;SDS011;67498;53.650;10.090;2023-06-26T04:40:53;7.53;;;3.00;;
78224;SDS011;67498;53.650;10.090;2023-06-26T04:43:19;5.57;;;2.30;;
78224;SDS011;67498;53.650;10.090;2023-06-26T04:45:44;6.83;;;3.23;;
78224;SDS011;67498;53.650;10.090;2023-06-26T04:48:09;8.43;;;3.10;;
78224;SDS011;67498;53.650;10.090;2023-06-26T04:50:34;7.17;;;3.20;;
78224;SDS011;67498;53.650;10.090;2023-06-26T04:53:00;8.03;;;2.80;;
78224;SDS011;67498;53.650;10.090;2023-06-26T04:55:26;12.65;;;6.97;;
78224;SDS011;67498;53.650;10.090;2023-06-26T04:57:51;10.93;;;5.40;;
78224;SDS011;67498;53.650;10.090;2023-06-26T05:01:23;8.53;;;4.10;;
78224;SDS011;67498;53.650;10.090;2023-06-26T05:03:48;7.87;;;3.80;;
78224;SDS011;67498;53.650;10.090;2023-06-26T05:06:14;7.65;;;4.13;;
78224;SDS011;67498;53.650;10.090;2023-06-26T05:08:39;7.23;;;3.50;;
78224;SDS011;67498;53.650;10.090;2023-06-26T05:11:04;8.00;;;3.97;;
78224;SDS011;67498;53.650;10.090;2023-06-26T05:13:30;7.20;;;3.47;;
78224;SDS011;67498;53.650;10.090;2023-06-26T05:15:55;6.67;;;3.43;;
78224;SDS011;67498;53.650;10.090;2023-06-26T05:18:20;8.47;;;3.47;;
78224;SDS011;67498;53.650;10.090;2023-06-26T05:20:45;8.73;;;3.50;;
78224;SDS011;67498;53.650;10.090;2023-06-26T05:23:11;12.65;;;3.40;;
78224;SDS011;67498;53.650;10.090;2023-06-26T05:25:37;8.05;;;3.80;;
78224;SDS011;67498;53.650;10.090;2023-06-26T05:28:03;7.43;;;3.30;;
78224;SDS011;67498;53.650;10.090;2023-06-26T05:30:33;6.75;;;3.38;;
78224;SDS011;67498;53.650;10.090;2023-06-26T05:33:00;7.07;;;3.63;;
78224;SDS011;67498;53.650;10.090;2023-06-26T05:35:28;6.88;;;3.63;;
78224;SDS011;67498;53.650;10.090;2023-06-26T05:37:55;6.70;;;3.50;;
78224;SDS011;67498;53.650;10.090;2023-06-26T05:40:21;7.15;;;3.22;;
78224;SDS011;67498;53.650;10.090;2023-06-26T05:42:46;9.27;;;3.87;;
78224;SDS011;67498;53.650;10.090;2023-06-26T05:45:12;8.60;;;3.80;;
78224;SDS011;67498;53.650;10.090;2023-06-26T05:47:37;7.03;;;3.23;;
78224;SDS011;67498;53.650;10.090;2023-06-26T05:50:03;8.57;;;4.00;;
78224;SDS011;67498;53.650;10.090;2023-06-26T05:52:29;7.18;;;3.53;;
78224;SDS011;67498;53.650;10.090;2023-06-26T05:54:55;7.90;;;3.38;;
78224;SDS011;67498;53.650;10.090;2023-06-26T05:57:23;7.97;;;3.42;;
78224;SDS011;67498;53.650;10.090;2023-06-26T05:59:49;7.70;;;3.33;;
78224;SDS011;67498;53.650;10.090;2023-06-26T06:02:15;6.68;;;3.25;;
78224;SDS011;67498;53.650;10.090;2023-06-26T06:04:40;7.40;;;3.00;;
78224;SDS011;67498;53.650;10.090;2023-06-26T06:07:05;6.87;;;3.40;;
78224;SDS011;67498;53.650;10.090;2023-06-26T06:09:30;7.40;;;3.20;;
78224;SDS011;67498;53.650;10.090;2023-06-26T06:11:56;6.73;;;3.80;;
78224;SDS011;67498;53.650;10.090;2023-06-26T06:14:21;7.67;;;3.33;;
78224;SDS011;67498;53.650;10.090;2023-06-26T06:16:46;7.07;;;3.50;;
78224;SDS011;67498;53.650;10.090;2023-06-26T06:19:12;7.50;;;3.53;;
78224;SDS011;67498;53.650;10.090;2023-06-26T06:21:38;6.53;;;3.10;;
78224;SDS011;67498;53.650;10.090;2023-06-26T06:24:04;6.07;;;3.67;;
78224;SDS011;67498;53.650;10.090;2023-06-26T06:26:29;8.20;;;3.25;;
78224;SDS011;67498;53.650;10.090;2023-06-26T06:28:55;6.63;;;3.40;;
78224;SDS011;67498;53.650;10.090;2023-06-26T06:31:20;7.37;;;3.43;;
78224;SDS011;67498;53.650;10.090;2023-06-26T06:33:45;6.57;;;3.50;;
78224;SDS011;67498;53.650;10.090;2023-06-26T06:36:10;6.57;;;3.23;;
78224;SDS011;67498;53.650;10.090;2023-06-26T06:38:36;7.47;;;3.33;;
78224;SDS011;67498;53.650;10.090;2023-06-26T06:41:01;6.87;;;3.47;;
78224;SDS011;67498;53.650;10.090;2023-06-26T06:43:26;6.60;;;3.47;;
78224;SDS011;67498;53.650;10.090;2023-06-26T06:45:52;6.90;;;3.37;;
78224;SDS011;67498;53.650;10.090;2023-06-26T06:48:17;6.93;;;3.40;;
78224;SDS011;67498;53.650;10.090;2023-06-26T06:50:42;9.03;;;3.43;;
78224;SDS011;67498;53.650;10.090;2023-06-26T06:53:08;7.28;;;3.53;;
78224;SDS011;67498;53.650;10.090;2023-06-26T06:55:33;7.30;;;3.10;;
78224;SDS011;67498;53.650;10.090;2023-06-26T06:57:58;6.97;;;3.57;;
78224;SDS011;67498;53.650;10.090;2023-06-26T07:00:23;9.03;;;3.73;;
78224;SDS011;67498;53.650;10.090;2023-06-26T07:02:49;7.60;;;3.57;;
78224;SDS011;67498;53.650;10.090;2023-06-26T07:05:14;6.60;;;3.60;;
78224;SDS011;67498;53.650;10.090;2023-06-26T07:07:39;8.37;;;3.70;;
78224;SDS011;67498;53.650;10.090;2023-06-26T07:10:06;6.03;;;3.33;;
78224;SDS011;67498;53.650;10.090;2023-06-26T07:12:32;9.37;;;3.63;;
78224;SDS011;67498;53.650;10.090;2023-06-26T07:14:59;6.53;;;2.90;;
78224;SDS011;67498;53.650;10.090;2023-06-26T07:17:25;7.10;;;3.65;;
78224;SDS011;67498;53.650;10.090;2023-06-26T07:19:50;6.53;;;3.57;;
78224;SDS011;67498;53.650;10.090;2023-06-26T07:22:16;7.07;;;3.53;;
78224;SDS011;67498;53.650;10.090;2023-06-26T07:24:41;6.77;;;3.40;;
78224;SDS011;67498;53.650;10.090;2023-06-26T07:27:06;6.23;;;3.03;;
78224;SDS011;67498;53.650;10.090;2023-06-26T07:29:31;7.17;;;3.67;;
78224;SDS011;67498;53.650;10.090;2023-06-26T07:31:57;7.87;;;3.47;;
78224;SDS011;67498;53.650;10.090;2023-06-26T07:34:22;6.67;;;3.13;;
78224;SDS011;67498;53.650;10.090;2023-06-26T07:36:47;7.60;;;3.80;;
78224;SDS011;67498;53.650;10.090;2023-06-26T07:39:13;7.35;;;3.50;;
78224;SDS011;67498;53.650;10.090;2023-06-26T07:41:38;6.40;;;3.57;;
78224;SDS011;67498;53.650;10.090;2023-06-26T07:44:03;6.20;;;3.20;;
78224;SDS011;67498;53.650;10.090;2023-06-26T07:46:28;8.30;;;3.80;;
78224;SDS011;67498;53.650;10.090;2023-06-26T07:48:54;6.67;;;3.57;;
78224;SDS011;67498;53.650;10.090;2023-06-26T07:51:20;6.97;;;3.20;;
78224;SDS011;67498;53.650;10.090;2023-06-26T07:53:45;6.57;;;3.13;;
78224;SDS011;67498;53.650;10.090;2023-06-26T07:56:10;10.67;;;3.80;;
78224;SDS011;67498;53.650;10.090;2023-06-26T07:58:36;7.40;;;3.57;;
78224;SDS011;67498;53.650;10.090;2023-06-26T08:01:01;8.53;;;3.57;;
78224;SDS011;67498;53.650;10.090;2023-06-26T08:03:26;7.63;;;3.57;;
78224;SDS011;67498;53.650;10.090;2023-06-26T08:05:52;6.60;;;2.97;;
78224;SDS011;67498;53.650;10.090;2023-06-26T08:08:17;6.87;;;3.60;;
78224;SDS011;67498;53.650;10.090;2023-06-26T08:10:42;6.20;;;3.47;;
78224;SDS011;67498;53.650;10.090;2023-06-26T08:13:08;9.83;;;3.60;;
78224;SDS011;67498;53.650;10.090;2023-06-26T08:15:33;7.53;;;3.40;;
78224;SDS011;67498;53.650;10.090;2023-06-26T08:17:58;6.97;;;3.53;;
78224;SDS011;67498;53.650;10.090;2023-06-26T08:20:23;7.87;;;3.47;;
78224;SDS011;67498;53.650;10.090;2023-06-26T08:22:49;6.07;;;3.20;;
78224;SDS011;67498;53.650;10.090;2023-06-26T08:25:16;7.45;;;3.38;;
78224;SDS011;67498;53.650;10.090;2023-06-26T08:27:42;6.20;;;3.13;;
78224;SDS011;67498;53.650;10.090;2023-06-26T08:30:07;7.50;;;3.40;;
78224;SDS011;67498;53.650;10.090;2023-06-26T08:32:33;6.38;;;3.55;;
78224;SDS011;67498;53.650;10.090;2023-06-26T08:34:58;5.60;;;2.87;;
78224;SDS011;67498;53.650;10.090;2023-06-26T08:37:23;6.77;;;3.10;;
78224;SDS011;67498;53.650;10.090;2023-06-26T08:39:49;8.70;;;3.53;;
78224;SDS011;67498;53.650;10.090;2023-06-26T08:42:14;6.87;;;3.57;;
78224;SDS011;67498;53.650;10.090;2023-06-26T08:44:39;6.60;;;3.50;;
78224;SDS011;67498;53.650;10.090;2023-06-26T08:47:05;8.67;;;3.10;;
78224;SDS011;67498;53.650;10.090;2023-06-26T08:52:03;8.23;;;4.00;;
78224;SDS011;67498;53.650;10.090;2023-06-26T08:54:36;6.32;;;3.30;;
78224;SDS011;67498;53.650;10.090;2023-06-26T08:57:09;7.07;;;3.50;;
78224;SDS011;67498;53.650;10.090;2023-06-26T08:59:35;7.37;;;3.67;;
78224;SDS011;67498;53.650;10.090;2023-06-26T09:02:00;7.80;;;3.97;;
78224;SDS011;67498;53.650;10.090;2023-06-26T09:04:26;7.03;;;3.33;;
78224;SDS011;67498;53.650;10.090;2023-06-26T09:06:51;9.00;;;3.53;;
78224;SDS011;67498;53.650;10.090;2023-06-26T09:09:17;7.10;;;3.47;;
78224;SDS011;67498;53.650;10.090;2023-06-26T09:11:42;15.93;;;3.93;;
78224;SDS011;67498;53.650;10.090;2023-06-26T09:14:07;8.77;;;3.57;;
78224;SDS011;67498;53.650;10.090;2023-06-26T09:16:45;7.00;;;3.37;;
78224;SDS011;67498;53.650;10.090;2023-06-26T09:19:13;9.95;;;3.90;;
78224;SDS011;67498;53.650;10.090;2023-06-26T09:21:42;9.15;;;3.85;;
78224;SDS011;67498;53.650;10.090;2023-06-26T09:24:08;6.97;;;3.70;;
78224;SDS011;67498;53.650;10.090;2023-06-26T09:26:37;8.30;;;3.83;;
78224;SDS011;67498;53.650;10.090;2023-06-26T09:29:07;6.93;;;3.83;;
78224;SDS011;67498;53.650;10.090;2023-06-26T09:31:33;7.88;;;4.13;;
78224;SDS011;67498;53.650;10.090;2023-06-26T09:34:01;11.73;;;4.13;;
78224;SDS011;67498;53.650;10.090;2023-06-26T09:36:28;8.00;;;4.05;;
78224;SDS011;67498;53.650;10.090;2023-06-26T09:38:57;8.73;;;4.72;;
78224;SDS011;67498;53.650;10.090;2023-06-26T09:41:24;8.73;;;4.53;;
78224;SDS011;67498;53.650;10.090;2023-06-26T09:43:49;10.33;;;4.40;;
78224;SDS011;67498;53.650;10.090;2023-06-26T09:46:28;9.82;;;4.55;;
78224;SDS011;67498;53.650;10.090;2023-06-26T09:49:04;8.05;;;4.57;;
78224;SDS011;67498;53.650;10.090;2023-06-26T09:51:31;10.15;;;3.65;;
78224;SDS011;67498;53.650;10.090;2023-06-26T09:53:57;7.97;;;3.85;;
78224;SDS011;67498;53.650;10.090;2023-06-26T09:56:23;9.17;;;3.63;;
78224;SDS011;67498;53.650;10.090;2023-06-26T09:58:49;9.07;;;3.83;;
78224;SDS011;67498;53.650;10.090;2023-06-26T10:01:14;10.03;;;3.57;;
78224;SDS011;67498;53.650;10.090;2023-06-26T10:03:39;7.57;;;3.40;;
78224;SDS011;67498;53.650;10.090;2023-06-26T10:06:05;11.43;;;4.07;;
78224;SDS011;67498;53.650;10.090;2023-06-26T10:08:32;8.88;;;3.70;;
78224;SDS011;67498;53.650;10.090;2023-06-26T10:11:00;12.85;;;3.35;;
78224;SDS011;67498;53.650;10.090;2023-06-26T10:13:27;8.47;;;3.37;;
78224;SDS011;67498;53.650;10.090;2023-06-26T10:15:56;12.55;;;4.10;;
78224;SDS011;67498;53.650;10.090;2023-06-26T10:18:24;7.77;;;3.50;;
78224;SDS011;67498;53.650;10.090;2023-06-26T10:20:51;6.22;;;3.00;;
78224;SDS011;67498;53.650;10.090;2023-06-26T10:23:20;7.97;;;3.50;;
78224;SDS011;67498;53.650;10.090;2023-06-26T10:25:46;7.85;;;3.72;;
78224;SDS011;67498;53.650;10.090;2023-06-26T10:28:13;10.60;;;3.87;;
78224;SDS011;67498;53.650;10.090;2023-06-26T10:30:41;9.13;;;4.35;;
78224;SDS011;67498;53.650;10.090;2023-06-26T10:33:09;9.15;;;4.00;;
78224;SDS011;67498;53.650;10.090;2023-06-26T10:35:40;10.18;;;4.10;;
78224;SDS011;67498;53.650;10.090;2023-06-26T10:38:08;8.77;;;4.00;;
78224;SDS011;67498;53.650;10.090;2023-06-26T10:40:43;11.37;;;5.20;;
78224;SDS011;67498;53.650;10.090;2023-06-26T10:43:12;8.50;;;4.23;;
78224;SDS011;67498;53.650;10.090;2023-06-26T10:45:44;8.45;;;4.22;;
78224;SDS011;67498;53.650;10.090;2023-06-26T10:48:12;11.15;;;3.85;;
78224;SDS011;67498;53.650;10.090;2023-06-26T10:50:39;10.13;;;3.78;;
78224;SDS011;67498;53.650;10.090;2023-06-26T10:55:32;8.30;;;3.28;;
78224;SDS011;67498;53.650;10.090;2023-06-26T10:57:58;7.57;;;3.20;;
78224;SDS011;67498;53.650;10.090;2023-06-26T11:00:23;7.93;;;2.90;;
78224;SDS011;67498;53.650;10.090;2023-06-26T11:02:51;6.80;;;2.90;;
78224;SDS011;67498;53.650;10.090;2023-06-26T11:05:23;8.85;;;3.47;;
78224;SDS011;67498;53.650;10.090;2023-06-26T11:10:52;7.07;;;3.13;;
78224;SDS011;67498;53.650;10.090;2023-06-26T11:13:19;6.90;;;3.53;;
78224;SDS011;67498;53.650;10.090;2023-06-26T11:15:48;11.50;;;4.25;;
78224;SDS011;67498;53.650;10.090;2023-06-26T11:18:14;7.93;;;3.63;;
78224;SDS011;67498;53.650;10.090;2023-06-26T11:20:40;10.80;;;4.00;;
78224;SDS011;67498;53.650;10.090;2023-06-26T11:23:07;12.60;;;4.18;;
78224;SDS011;67498;53.650;10.090;2023-06-26T11:25:37;9.73;;;3.83;;
78224;SDS011;67498;53.650;10.090;2023-06-26T11:28:03;8.63;;;3.58;;
78224;SDS011;67498;53.650;10.090;2023-06-26T11:30:29;7.78;;;3.60;;
78224;SDS011;67498;53.650;10.090;2023-06-26T11:33:05;7.27;;;3.10;;
78224;SDS011;67498;53.650;10.090;2023-06-26T11:35:34;7.53;;;2.83;;
78224;SDS011;67498;53.650;10.090;2023-06-26T11:38:00;7.65;;;3.22;;
78224;SDS011;67498;53.650;10.090;2023-06-26T11:40:33;10.20;;;2.70;;
78224;SDS011;67498;53.650;10.090;2023-06-26T11:42:59;8.90;;;2.57;;
78224;SDS011;67498;53.650;10.090;2023-06-26T11:45:30;9.40;;;2.97;;
78224;SDS011;67498;53.650;10.090;2023-06-26T11:47:56;8.68;;;3.05;;
78224;SDS011;67498;53.650;10.090;2023-06-26T11:50:22;10.32;;;2.58;;
78224;SDS011;67498;53.650;10.090;2023-06-26T11:52:58;6.45;;;2.80;;
78224;SDS011;67498;53.650;10.090;2023-06-26T11:55:24;9.37;;;2.37;;
78224;SDS011;67498;53.650;10.090;2023-06-26T11:57:50;6.70;;;2.05;;
78224;SDS011;67498;53.650;10.090;2023-06-26T12:00:18;6.65;;;1.90;;
78224;SDS011;67498;53.650;10.090;2023-06-26T12:02:44;4.45;;;1.50;;
78224;SDS011;67498;53.650;10.090;2023-06-26T12:05:11;9.13;;;1.73;;
78224;SDS011;67498;53.650;10.090;2023-06-26T12:07:37;7.18;;;1.25;;
78224;SDS011;67498;53.650;10.090;2023-06-26T12:10:03;6.75;;;1.77;;
78224;SDS011;67498;53.650;10.090;2023-06-26T12:12:30;7.47;;;1.20;;
78224;SDS011;67498;53.650;10.090;2023-06-26T12:14:56;6.88;;;1.35;;
78224;SDS011;67498;53.650;10.090;2023-06-26T12:17:23;5.43;;;1.10;;
78224;SDS011;67498;53.650;10.090;2023-06-26T12:19:50;8.05;;;1.50;;
78224;SDS011;67498;53.650;10.090;2023-06-26T12:22:16;6.63;;;1.40;;
78224;SDS011;67498;53.650;10.090;2023-06-26T12:24:43;5.40;;;1.17;;
78224;SDS011;67498;53.650;10.090;2023-06-26T12:27:10;4.95;;;1.13;;
78224;SDS011;67498;53.650;10.090;2023-06-26T12:29:40;6.22;;;1.40;;
78224;SDS011;67498;53.650;10.090;2023-06-26T12:32:10;5.37;;;1.07;;
78224;SDS011;67498;53.650;10.090;2023-06-26T12:34:36;8.18;;;1.42;;
78224;SDS011;67498;53.650;10.090;2023-06-26T12:37:12;5.35;;;1.23;;
78224;SDS011;67498;53.650;10.090;2023-06-26T12:42:17;4.75;;;1.30;;
78224;SDS011;67498;53.650;10.090;2023-06-26T12:44:44;6.00;;;1.37;;
78224;SDS011;67498;53.650;10.090;2023-06-26T12:47:09;6.32;;;1.15;;
78224;SDS011;67498;53.650;10.090;2023-06-26T12:49:38;6.77;;;1.03;;
78224;SDS011;67498;53.650;10.090;2023-06-26T12:52:05;4.20;;;0.95;;
78224;SDS011;67498;53.650;10.090;2023-06-26T12:54:35;9.35;;;1.20;;
78224;SDS011;67498;53.650;10.090;2023-06-26T12:57:02;4.15;;;1.15;;
78224;SDS011;67498;53.650;10.090;2023-06-26T12:59:29;4.18;;;1.15;;
78224;SDS011;67498;53.650;10.090;2023-06-26T13:01:55;6.17;;;1.00;;
78224;SDS011;67498;53.650;10.090;2023-06-26T13:04:20;7.63;;;1.13;;
78224;SDS011;67498;53.650;10.090;2023-06-26T13:06:45;5.03;;;1.10;;
78224;SDS011;67498;53.650;10.090;2023-06-26T13:09:11;4.40;;;1.20;;
78224;SDS011;67498;53.650;10.090;2023-06-26T13:11:37;3.38;;;0.85;;
78224;SDS011;67498;53.650;10.090;2023-06-26T13:14:02;6.57;;;1.00;;
78224;SDS011;67498;53.650;10.090;2023-06-26T13:16:28;6.50;;;1.30;;
78224;SDS011;67498;53.650;10.090;2023-06-26T13:18:53;6.77;;;0.93;;
78224;SDS011;67498;53.650;10.090;2023-06-26T13:21:19;4.70;;;0.93;;
78224;SDS011;67498;53.650;10.090;2023-06-26T13:23:44;7.43;;;0.83;;
78224;SDS011;67498;53.650;10.090;2023-06-26T13:26:10;6.00;;;1.17;;
78224;SDS011;67498;53.650;10.090;2023-06-26T13:28:36;7.00;;;1.00;;
78224;SDS011;67498;53.650;10.090;2023-06-26T13:31:01;5.35;;;1.20;;
78224;SDS011;67498;53.650;10.090;2023-06-26T13:33:27;4.53;;;1.05;;
78224;SDS011;67498;53.650;10.090;2023-06-26T13:35:53;3.80;;;0.90;;
78224;SDS011;67498;53.650;10.090;2023-06-26T13:38:21;3.10;;;0.80;;
78224;SDS011;67498;53.650;10.090;2023-06-26T13:40:50;3.45;;;0.82;;
78224;SDS011;67498;53.650;10.090;2023-06-26T13:43:20;6.32;;;0.90;;
78224;SDS011;67498;53.650;10.090;2023-06-26T13:45:45;6.53;;;0.90;;
78224;SDS011;67498;53.650;10.090;2023-06-26T13:48:11;7.75;;;1.10;;
78224;SDS011;67498;53.650;10.090;2023-06-26T13:50:36;4.03;;;0.73;;
78224;SDS011;67498;53.650;10.090;2023-06-26T13:53:01;4.37;;;0.90;;
78224;SDS011;67498;53.650;10.090;2023-06-26T13:55:27;3.37;;;1.00;;
78224;SDS011;67498;53.650;10.090;2023-06-26T13:57:52;6.27;;;1.60;;
78224;SDS011;67498;53.650;10.090;2023-06-26T14:00:17;3.90;;;0.90;;
78224;SDS011;67498;53.650;10.090;2023-06-26T14:02:45;3.65;;;0.80;;
78224;SDS011;67498;53.650;10.090;2023-06-26T14:05:11;3.72;;;0.70;;
78224;SDS011;67498;53.650;10.090;2023-06-26T14:07:36;2.47;;;0.53;;
78224;SDS011;67498;53.650;10.090;2023-06-26T14:10:03;3.35;;;0.82;;
78224;SDS011;67498;53.650;10.090;2023-06-26T14:12:30;3.70;;;0.70;;
78224;SDS011;67498;53.650;10.090;2023-06-26T14:14:55;3.10;;;0.73;;
78224;SDS011;67498;53.650;10.090;2023-06-26T14:17:20;3.43;;;0.80;;
78224;SDS011;67498;53.650;10.090;2023-06-26T14:19:46;5.07;;;0.93;;
78224;SDS011;67498;53.650;10.090;2023-06-26T14:22:11;4.80;;;0.90;;
78224;SDS011;67498;53.650;10.090;2023-06-26T14:24:36;4.50;;;0.70;;
78224;SDS011;67498;53.650;10.090;2023-06-26T14:27:02;4.50;;;0.70;;
78224;SDS011;67498;53.650;10.090;2023-06-26T14:29:27;2.58;;;0.70;;
78224;SDS011;67498;53.650;10.090;2023-06-26T14:31:52;3.83;;;1.10;;
78224;SDS011;67498;53.650;10.090;2023-06-26T14:34:18;4.73;;;0.90;;
78224;SDS011;67498;53.650;10.090;2023-06-26T14:36:43;2.60;;;0.60;;
78224;SDS011;67498;53.650;10.090;2023-06-26T14:39:08;3.13;;;0.70;;
78224;SDS011;67498;53.650;10.090;2023-06-26T14:41:33;2.97;;;0.70;;